Inicio METAR Ruta Wind Satelite

Informe Meteorológico

Fecha: 2021/09/21 14:25:42 Local
2021.09.21 19:25 UTC


Operación:
SKSJ 211800Z 01007KT 9999 SCT020 29/24 Q1011 RMK A2987 =